Current Weather

Doylestown

Doylestown, Pennsylvania (KDYL)

Report from: Tuesday, May 21, 2024 11:54 AM EDT
Current time: Tuesday, May 21, 2024 12:16 PM EDT

Nearby weather – Weather history – Daily summaries
Weather forecast

Temperature26.7°C (80.1°F)
Heat index27.9°C (82.3°F)
Dew point18.3°C (64.9°F)
Winds 4 kts (2.1 m/s, 4.6 mph) Vrb
Winds variableWinds variable
Visibility10 mi. (16.1 km)
Clouds Sky clear
Altimeter30.00 in.Hg (1016 mB)
Relative humidity60 %
Density altitude1,565 ft. (477 m)
Sea-level pressure101.5 kPa (1015 mB, 29.98 in.Hg)
Remarks Fully automated report
Automated weather observing station with precipitation discriminator
Flight conditions Visual Meteorological Conditions
Raw dataKDYL 211554Z AUTO VRB04KT 10SM CLR 27/18 A3000 RMK AO2 SLP154 T02670183
An error has occurred. This application may no longer respond until reloaded. Reload 🗙